createdAt,value
2019-03-24T00:01:06.250Z,99.90
2019-03-24T00:03:35.565Z,99.90
2019-03-24T00:06:04.940Z,99.90
2019-03-24T00:08:35.207Z,99.90
2019-03-24T00:11:04.603Z,99.90
2019-03-24T00:13:33.912Z,99.90
2019-03-24T00:16:03.228Z,99.90
2019-03-24T00:18:32.529Z,99.90
2019-03-24T00:21:01.871Z,99.90
2019-03-24T00:23:31.173Z,99.90
2019-03-24T00:26:00.486Z,99.90
2019-03-24T00:28:29.800Z,99.90
2019-03-24T00:30:59.110Z,99.90
2019-03-24T00:33:28.434Z,99.90
2019-03-24T00:35:57.772Z,99.90
2019-03-24T00:38:27.076Z,99.90
2019-03-24T00:40:56.397Z,99.90
2019-03-24T00:43:25.711Z,99.90
2019-03-24T00:45:55.031Z,99.90
2019-03-24T00:48:24.336Z,99.90
2019-03-24T00:50:53.639Z,99.90
2019-03-24T00:53:22.961Z,99.90
2019-03-24T00:55:52.271Z,99.90
2019-03-24T00:58:21.573Z,99.90
2019-03-24T01:00:51.728Z,99.90
2019-03-24T01:03:21.120Z,99.90
2019-03-24T01:05:50.447Z,99.90
2019-03-24T01:08:19.760Z,99.90
2019-03-24T01:10:49.078Z,99.90
2019-03-24T01:13:18.852Z,99.90
2019-03-24T01:15:48.295Z,99.90
2019-03-24T01:18:18.635Z,99.90
2019-03-24T01:20:47.964Z,99.90
2019-03-24T01:23:17.344Z,99.90
2019-03-24T01:25:46.664Z,99.90
2019-03-24T01:28:16.000Z,99.90
2019-03-24T01:30:46.282Z,99.90
2019-03-24T01:33:15.601Z,99.90
2019-03-24T01:35:44.918Z,99.90
2019-03-24T01:38:14.220Z,99.90
2019-03-24T01:40:43.533Z,99.90
2019-03-24T01:43:12.833Z,99.90
2019-03-24T01:45:42.207Z,99.90
2019-03-24T01:48:11.551Z,99.90
2019-03-24T01:50:41.850Z,99.90
2019-03-24T01:53:11.228Z,99.90
2019-03-24T01:55:40.548Z,99.90
2019-03-24T01:58:09.865Z,99.90
2019-03-24T02:00:39.453Z,99.90
2019-03-24T02:03:08.879Z,99.90
2019-03-24T02:05:38.294Z,99.90
2019-03-24T02:08:07.632Z,99.90
2019-03-24T02:10:36.968Z,99.90
2019-03-24T02:13:06.277Z,99.90
2019-03-24T02:15:35.592Z,99.90
2019-03-24T02:18:04.987Z,99.90
2019-03-24T02:20:34.311Z,99.90
2019-03-24T02:23:03.626Z,99.90
2019-03-24T02:25:32.926Z,99.90
2019-03-24T02:28:02.252Z,99.90
2019-03-24T02:30:31.560Z,99.90
2019-03-24T02:33:00.868Z,99.90
2019-03-24T02:35:30.180Z,99.90
2019-03-24T02:37:59.494Z,99.90
2019-03-24T02:40:28.823Z,99.90
2019-03-24T02:42:58.129Z,99.90
2019-03-24T02:45:27.445Z,99.90
2019-03-24T02:47:56.771Z,99.90
2019-03-24T02:50:26.094Z,99.90
2019-03-24T02:52:55.395Z,99.90
2019-03-24T02:55:24.713Z,99.90
2019-03-24T02:57:54.022Z,99.90
2019-03-24T03:00:23.350Z,99.90
2019-03-24T03:02:52.726Z,99.90
2019-03-24T03:05:22.044Z,99.90
2019-03-24T03:07:51.353Z,99.90
2019-03-24T03:10:20.690Z,99.90
2019-03-24T03:12:49.981Z,99.90
2019-03-24T03:15:19.303Z,99.90
2019-03-24T03:17:48.677Z,99.90
2019-03-24T03:20:18.254Z,99.90
2019-03-24T03:22:47.565Z,99.90
2019-03-24T03:25:17.093Z,99.90
2019-03-24T03:27:46.533Z,99.90
2019-03-24T03:30:16.202Z,99.90
2019-03-24T03:32:45.501Z,99.90
2019-03-24T03:35:14.878Z,99.90
2019-03-24T03:37:44.370Z,99.90
2019-03-24T03:40:14.138Z,99.90
2019-03-24T03:42:43.518Z,99.90
2019-03-24T03:45:14.629Z,99.90
2019-03-24T03:47:43.963Z,99.90
2019-03-24T03:50:13.415Z,99.90
2019-03-24T03:52:42.728Z,99.90
2019-03-24T03:55:12.110Z,99.90
2019-03-24T03:57:41.471Z,99.90
2019-03-24T04:00:11.567Z,99.90
2019-03-24T04:02:40.937Z,99.90
2019-03-24T04:05:10.482Z,99.90
2019-03-24T04:07:39.801Z,99.90
2019-03-24T04:10:09.241Z,99.90
2019-03-24T04:12:38.568Z,99.90
2019-03-24T04:15:08.038Z,99.90
2019-03-24T04:17:37.417Z,99.90
2019-03-24T04:20:06.982Z,99.90
2019-03-24T04:22:36.314Z,99.90
2019-03-24T04:25:06.770Z,99.90
2019-03-24T04:27:36.094Z,99.90
2019-03-24T04:30:07.504Z,99.90
2019-03-24T04:32:36.818Z,99.90
2019-03-24T04:35:07.948Z,99.90
2019-03-24T04:37:37.296Z,99.90
2019-03-24T04:40:07.447Z,99.90
2019-03-24T04:42:36.756Z,99.90
2019-03-24T04:45:06.895Z,99.90
2019-03-24T04:47:36.225Z,99.90
2019-03-24T04:50:09.312Z,99.90
2019-03-24T04:52:38.723Z,99.90
2019-03-24T04:55:08.965Z,99.90
2019-03-24T04:57:38.346Z,99.90
2019-03-24T05:00:08.788Z,99.90
2019-03-24T05:02:38.192Z,99.90
2019-03-24T05:05:07.926Z,99.90
2019-03-24T05:07:37.324Z,99.90
2019-03-24T05:10:09.718Z,99.90
2019-03-24T05:12:40.014Z,99.90
2019-03-24T05:15:09.388Z,99.90
2019-03-24T05:17:38.713Z,99.90
2019-03-24T05:20:08.446Z,99.90
2019-03-24T05:22:37.774Z,99.90
2019-03-24T05:25:07.154Z,99.90
2019-03-24T05:27:37.531Z,99.90
2019-03-24T05:30:07.669Z,99.90
2019-03-24T05:32:36.980Z,99.90
2019-03-24T05:35:07.235Z,99.90
2019-03-24T05:37:36.545Z,99.90
2019-03-24T05:40:06.281Z,99.90
2019-03-24T05:42:35.595Z,99.90
2019-03-24T05:45:07.248Z,99.90
2019-03-24T05:47:37.458Z,99.90
2019-03-24T05:50:08.076Z,99.90
2019-03-24T05:52:37.397Z,99.90
2019-03-24T05:55:07.249Z,99.90
2019-03-24T05:57:36.558Z,99.90
2019-03-24T06:00:09.545Z,99.90
2019-03-24T06:02:38.864Z,99.90
2019-03-24T06:05:08.239Z,99.90
2019-03-24T06:07:37.552Z,99.90
2019-03-24T06:10:08.187Z,99.90
2019-03-24T06:12:37.575Z,99.90
2019-03-24T06:15:09.324Z,99.90
2019-03-24T06:17:47.354Z,99.90
2019-03-24T06:20:09.912Z,99.90
2019-03-24T06:22:39.231Z,99.90
2019-03-24T06:25:09.980Z,99.90
2019-03-24T06:27:39.296Z,99.90
2019-03-24T06:30:08.841Z,99.90
2019-03-24T06:32:38.166Z,99.90
2019-03-24T06:35:07.738Z,99.90
2019-03-24T06:37:37.052Z,99.90
2019-03-24T06:40:07.668Z,99.90
2019-03-24T06:42:36.999Z,99.90
2019-03-24T06:45:07.152Z,99.90
2019-03-24T06:47:36.485Z,99.90
2019-03-24T06:50:08.404Z,99.90
2019-03-24T06:52:37.744Z,99.90
2019-03-24T06:55:07.124Z,99.90
2019-03-24T06:57:36.429Z,99.90
2019-03-24T07:00:07.976Z,99.90
2019-03-24T07:02:37.302Z,99.90
2019-03-24T07:05:07.020Z,99.90
2019-03-24T07:07:36.376Z,99.90
2019-03-24T07:10:08.022Z,99.90
2019-03-24T07:12:37.443Z,99.90
2019-03-24T07:15:07.493Z,99.90
2019-03-24T07:17:37.684Z,99.90
2019-03-24T07:20:08.062Z,99.90
2019-03-24T07:22:37.383Z,99.90
2019-03-24T07:25:07.075Z,99.90
2019-03-24T07:27:36.387Z,99.90
2019-03-24T07:30:07.558Z,99.90
2019-03-24T07:32:36.961Z,99.90
2019-03-24T07:35:07.448Z,99.90
2019-03-24T07:37:37.036Z,99.90
2019-03-24T07:40:08.357Z,99.90
2019-03-24T07:42:37.680Z,99.90
2019-03-24T07:45:08.140Z,99.90
2019-03-24T07:47:37.463Z,99.90
2019-03-24T07:50:09.211Z,99.90
2019-03-24T07:52:38.522Z,99.90
2019-03-24T07:55:08.482Z,99.90
2019-03-24T07:57:37.805Z,99.90
2019-03-24T08:00:09.262Z,99.90
2019-03-24T08:02:40.108Z,99.90
2019-03-24T08:05:09.611Z,99.90
2019-03-24T08:07:39.010Z,99.90
2019-03-24T08:10:08.595Z,99.20
2019-03-24T08:12:38.014Z,99.40
2019-03-24T08:15:07.565Z,99.10
2019-03-24T08:17:36.878Z,98.10
2019-03-24T08:20:07.229Z,99.10
2019-03-24T08:22:36.563Z,99.80
2019-03-24T08:25:07.015Z,99.90
2019-03-24T08:27:36.328Z,99.90
2019-03-24T08:30:06.779Z,99.90
2019-03-24T08:32:36.096Z,99.90
2019-03-24T08:35:06.453Z,99.90
2019-03-24T08:37:35.846Z,99.90
2019-03-24T08:40:07.217Z,99.90
2019-03-24T08:42:36.564Z,99.80
2019-03-24T08:45:06.472Z,98.70
2019-03-24T08:47:35.808Z,99.50
2019-03-24T08:50:07.266Z,98.40
2019-03-24T08:52:36.587Z,97.80
2019-03-24T08:55:06.444Z,96.70
2019-03-24T08:57:35.773Z,96.00
2019-03-24T09:00:06.627Z,96.30
2019-03-24T09:02:36.189Z,96.40
2019-03-24T09:05:06.529Z,97.40
2019-03-24T09:07:35.847Z,98.80
2019-03-24T09:10:07.415Z,98.20
2019-03-24T09:12:36.727Z,97.40
2019-03-24T09:15:07.259Z,95.60
2019-03-24T09:17:36.596Z,95.80
2019-03-24T09:20:06.400Z,94.90
2019-03-24T09:22:36.691Z,96.10
2019-03-24T09:25:07.341Z,95.00
2019-03-24T09:27:36.730Z,93.20
2019-03-24T09:30:08.543Z,93.30
2019-03-24T09:32:37.859Z,95.10
2019-03-24T09:35:07.368Z,95.40
2019-03-24T09:37:36.675Z,96.10
2019-03-24T09:40:07.222Z,93.90
2019-03-24T09:49:38.598Z,94.10
2019-03-24T09:52:11.788Z,93.20
2019-03-24T09:54:45.835Z,91.80
2019-03-24T09:57:36.602Z,92.90
2019-03-24T10:00:13.617Z,92.80
2019-03-24T10:02:47.623Z,92.60
2019-03-24T10:05:19.734Z,92.80
2019-03-24T10:07:50.109Z,91.80
2019-03-24T10:10:19.466Z,92.80
2019-03-24T10:12:49.165Z,90.70
2019-03-24T10:15:32.685Z,91.60
2019-03-24T10:18:06.474Z,91.80
2019-03-24T10:21:02.607Z,92.80
2019-03-24T10:23:48.405Z,93.90
2019-03-24T10:26:20.787Z,94.40
2019-03-24T10:28:50.124Z,94.80
2019-03-24T10:31:19.471Z,94.40
2019-03-24T10:34:04.967Z,94.60
2019-03-24T10:36:34.360Z,93.10
2019-03-24T10:39:05.098Z,93.10
2019-03-24T10:41:34.473Z,93.20
2019-03-24T10:57:18.369Z,90.00
2019-03-24T10:59:47.783Z,90.60
2019-03-24T11:02:17.104Z,90.60
2019-03-24T11:04:53.339Z,90.00
2019-03-24T11:08:14.853Z,89.30
2019-03-24T11:11:38.611Z,87.10
2019-03-24T11:14:21.442Z,85.00
2019-03-24T11:16:52.395Z,88.90
2019-03-24T11:19:21.723Z,88.40
2019-03-24T11:21:51.124Z,91.50
2019-03-24T11:24:20.466Z,91.30
2019-03-24T11:26:49.808Z,89.40
2019-03-24T11:29:19.210Z,91.30
2019-03-24T11:31:48.535Z,91.50
2019-03-24T11:34:17.877Z,92.80
2019-03-24T11:36:55.375Z,91.40
2019-03-24T11:39:33.332Z,90.70
2019-03-24T11:42:05.678Z,91.00
2019-03-24T11:44:53.778Z,91.00
2019-03-24T11:47:26.998Z,92.20
2019-03-24T11:49:58.184Z,91.00
2019-03-24T11:52:30.553Z,89.40
2019-03-24T11:55:00.056Z,89.80
2019-03-24T11:57:29.417Z,89.40
2019-03-24T12:00:04.149Z,88.40
2019-03-24T12:02:36.331Z,87.20
2019-03-24T12:05:11.645Z,82.90
2019-03-24T12:07:41.041Z,82.80
2019-03-24T12:14:24.408Z,82.40
2019-03-24T12:20:39.834Z,80.20
2019-03-24T12:23:09.231Z,76.20
2019-03-24T12:25:38.607Z,79.40
2019-03-24T12:28:16.703Z,73.90
2019-03-24T12:34:01.260Z,66.70
2019-03-24T12:36:37.057Z,65.00
2019-03-24T12:42:18.337Z,68.30
2019-03-24T12:45:05.720Z,77.70
2019-03-24T12:47:57.763Z,80.60
2019-03-24T12:50:33.003Z,83.00
2019-03-24T12:53:04.108Z,82.90
2019-03-24T12:55:37.503Z,82.10
2019-03-24T12:58:06.867Z,84.90
2019-03-24T13:00:38.100Z,84.40
2019-03-24T13:03:09.282Z,84.20
2019-03-24T13:05:38.665Z,85.30
2019-03-24T13:08:11.051Z,85.00
2019-03-24T13:10:41.115Z,82.40
2019-03-24T13:13:11.363Z,83.70
2019-03-24T13:15:41.229Z,85.40
2019-03-24T13:18:10.534Z,84.70
2019-03-24T13:20:39.859Z,85.80
2019-03-24T13:23:09.192Z,88.80
2019-03-24T13:25:38.509Z,87.00
2019-03-24T13:28:07.822Z,83.50
2019-03-24T13:30:37.134Z,78.20
2019-03-24T13:33:06.448Z,69.20
2019-03-24T13:35:35.759Z,65.50
2019-03-24T13:38:06.135Z,54.60
2019-03-24T13:40:36.429Z,56.00
2019-03-24T13:43:05.737Z,53.40
2019-03-24T13:45:35.064Z,52.10
2019-03-24T13:48:04.372Z,51.60
2019-03-24T13:50:33.693Z,48.40
2019-03-24T13:53:03.001Z,45.10
2019-03-24T13:55:32.326Z,40.80
2019-03-24T13:58:01.709Z,44.10
2019-03-24T14:00:31.025Z,43.40
2019-03-24T14:03:00.332Z,42.40
2019-03-24T14:05:29.660Z,41.50
2019-03-24T14:07:58.975Z,42.70
2019-03-24T14:10:28.281Z,39.40
2019-03-24T14:12:57.611Z,39.10
2019-03-24T14:15:26.997Z,39.60
2019-03-24T14:17:56.317Z,39.70
2019-03-24T14:20:25.629Z,40.30
2019-03-24T14:22:55.469Z,42.50
2019-03-24T14:25:24.947Z,40.70
2019-03-24T14:27:54.276Z,39.60
2019-03-24T14:30:41.746Z,38.60
2019-03-24T14:33:12.200Z,39.50
2019-03-24T14:35:41.747Z,40.10
2019-03-24T14:38:11.065Z,42.00
2019-03-24T14:40:40.435Z,40.20
2019-03-24T14:43:09.819Z,44.20
2019-03-24T14:45:39.128Z,40.50
2019-03-24T14:48:08.437Z,42.40
2019-03-24T14:50:37.745Z,39.80
2019-03-24T14:53:07.169Z,46.10
2019-03-24T14:55:36.619Z,45.20
2019-03-24T14:58:06.121Z,47.20
2019-03-24T15:00:40.533Z,50.80
2019-03-24T15:03:10.015Z,48.10
2019-03-24T15:05:39.402Z,48.40
2019-03-24T15:08:10.076Z,49.10
2019-03-24T15:10:39.543Z,43.70
2019-03-24T15:13:08.933Z,40.40
2019-03-24T15:15:38.227Z,44.10
2019-03-24T15:18:07.549Z,45.80
2019-03-24T15:20:36.869Z,41.50
2019-03-24T15:23:06.179Z,39.60
2019-03-24T15:25:35.486Z,42.20
2019-03-24T15:28:04.807Z,41.90
2019-03-24T15:30:34.115Z,43.10
2019-03-24T15:33:03.436Z,44.90
2019-03-24T15:35:32.748Z,45.50
2019-03-24T15:38:08.518Z,46.00
2019-03-24T15:40:33.072Z,45.20
2019-03-24T15:43:02.464Z,45.00
2019-03-24T15:45:31.767Z,50.80
2019-03-24T15:48:01.083Z,53.80
2019-03-24T15:50:30.391Z,55.60
2019-03-24T15:52:59.744Z,59.30
2019-03-24T15:55:29.051Z,62.40
2019-03-24T15:57:58.377Z,58.30
2019-03-24T16:00:42.311Z,56.10
2019-03-24T16:03:11.809Z,59.30
2019-03-24T16:05:41.123Z,63.10
2019-03-24T16:08:10.458Z,60.20
2019-03-24T16:10:39.776Z,57.60
2019-03-24T16:13:09.083Z,54.00
2019-03-24T16:15:38.382Z,51.20
2019-03-24T16:18:07.699Z,47.50
2019-03-24T16:20:37.011Z,50.90
2019-03-24T16:23:06.331Z,53.60
2019-03-24T16:25:35.641Z,47.30
2019-03-24T16:28:04.965Z,49.50
2019-03-24T16:30:34.275Z,52.40
2019-03-24T16:33:03.614Z,52.90
2019-03-24T16:35:32.915Z,55.30
2019-03-24T16:38:02.235Z,53.60
2019-03-24T16:40:31.541Z,55.10
2019-03-24T16:43:00.858Z,56.30
2019-03-24T16:45:30.162Z,60.70
2019-03-24T16:47:59.480Z,70.20
2019-03-24T16:50:28.783Z,77.40
2019-03-24T16:52:58.128Z,77.80
2019-03-24T16:55:27.505Z,85.60
2019-03-24T16:57:56.812Z,84.00
2019-03-24T17:00:26.133Z,85.70
2019-03-24T17:02:55.470Z,87.60
2019-03-24T17:05:24.775Z,88.90
2019-03-24T17:07:54.106Z,89.90
2019-03-24T17:10:23.661Z,90.30
2019-03-24T17:12:54.055Z,90.20
2019-03-24T17:15:23.405Z,91.00
2019-03-24T17:17:52.727Z,91.40
2019-03-24T17:20:22.040Z,91.90
2019-03-24T17:22:51.427Z,91.80
2019-03-24T17:25:20.735Z,92.50
2019-03-24T17:27:50.053Z,92.80
2019-03-24T17:30:19.493Z,92.70
2019-03-24T17:32:48.791Z,93.10
2019-03-24T17:35:18.121Z,93.20
2019-03-24T17:37:47.430Z,93.50
2019-03-24T17:40:16.811Z,93.60
2019-03-24T17:42:46.131Z,94.00
2019-03-24T17:45:17.162Z,94.10
2019-03-24T17:47:46.479Z,94.50
2019-03-24T17:50:15.938Z,94.40
2019-03-24T17:52:45.244Z,94.90
2019-03-24T17:55:14.711Z,95.00
2019-03-24T17:57:44.012Z,95.40
2019-03-24T18:00:17.546Z,95.40
2019-03-24T18:02:47.861Z,95.60
2019-03-24T18:05:21.998Z,95.60
2019-03-24T18:07:54.368Z,95.90
2019-03-24T18:10:25.904Z,95.90
2019-03-24T18:12:55.290Z,95.90
2019-03-24T18:15:26.711Z,96.10
2019-03-24T18:17:55.790Z,96.10
2019-03-24T18:20:35.809Z,96.40
2019-03-24T18:23:05.207Z,96.70
2019-03-24T18:25:34.573Z,96.80
2019-03-24T18:28:04.058Z,96.70
2019-03-24T18:30:33.384Z,96.80
2019-03-24T18:33:02.705Z,97.00
2019-03-24T18:35:32.080Z,97.20
2019-03-24T18:38:01.460Z,97.40
2019-03-24T18:40:30.872Z,97.40
2019-03-24T18:43:00.217Z,97.40
2019-03-24T18:45:30.557Z,97.60
2019-03-24T18:48:02.306Z,97.40
2019-03-24T18:50:32.520Z,97.70
2019-03-24T18:53:01.929Z,97.80
2019-03-24T18:55:31.343Z,98.10
2019-03-24T18:58:00.647Z,98.20
2019-03-24T19:00:37.510Z,98.40
2019-03-24T19:03:06.852Z,98.20
2019-03-24T19:05:36.165Z,98.20
2019-03-24T19:08:05.471Z,98.20
2019-03-24T19:10:34.929Z,98.60
2019-03-24T19:13:04.443Z,98.20
2019-03-24T19:15:33.809Z,98.30
2019-03-24T19:18:33.379Z,98.30
2019-03-24T19:21:37.179Z,98.70
2019-03-24T19:25:15.406Z,98.70
2019-03-24T19:27:53.916Z,98.70
2019-03-24T19:30:26.371Z,98.90
2019-03-24T19:32:56.799Z,98.90
2019-03-24T19:35:26.171Z,99.30
2019-03-24T19:37:57.064Z,99.50
2019-03-24T19:40:30.554Z,99.80
2019-03-24T19:43:01.501Z,99.70
2019-03-24T19:45:30.884Z,99.80
2019-03-24T19:48:00.210Z,99.80
2019-03-24T19:50:30.529Z,99.90
2019-03-24T19:52:59.879Z,99.90
2019-03-24T19:55:29.249Z,99.90
2019-03-24T19:58:00.230Z,99.90
2019-03-24T20:00:29.572Z,99.90
2019-03-24T20:02:58.867Z,99.80
2019-03-24T20:05:28.180Z,99.80
2019-03-24T20:07:59.109Z,99.90
2019-03-24T20:10:31.536Z,99.90
2019-03-24T20:13:00.872Z,99.90
2019-03-24T20:15:33.295Z,99.90
2019-03-24T20:18:12.887Z,99.90
2019-03-24T20:20:46.094Z,99.90
2019-03-24T20:23:28.853Z,99.90
2019-03-24T20:26:13.430Z,99.90
2019-03-24T20:28:50.297Z,99.90
2019-03-24T20:31:22.873Z,99.90
2019-03-24T20:34:15.890Z,99.90
2019-03-24T20:37:01.007Z,99.90
2019-03-24T20:39:38.705Z,99.90
2019-03-24T20:42:12.528Z,99.90
2019-03-24T20:44:46.179Z,99.90
2019-03-24T20:47:15.509Z,99.90
2019-03-24T20:49:44.954Z,99.90
2019-03-24T20:52:17.360Z,99.90
2019-03-24T20:54:46.691Z,99.90
2019-03-24T20:57:16.032Z,99.90
2019-03-24T20:59:45.368Z,99.90
2019-03-24T21:02:14.754Z,99.90
2019-03-24T21:04:44.137Z,99.90
2019-03-24T21:07:15.085Z,99.90
2019-03-24T21:09:51.447Z,99.90
2019-03-24T21:12:21.996Z,99.90
2019-03-24T21:14:51.288Z,99.90
2019-03-24T21:17:20.628Z,99.90
2019-03-24T21:19:49.929Z,99.90
2019-03-24T21:22:22.419Z,99.90
2019-03-24T21:24:51.762Z,99.90
2019-03-24T21:27:21.070Z,99.90
2019-03-24T21:29:50.366Z,99.90
2019-03-24T21:32:19.675Z,99.90
2019-03-24T21:34:48.985Z,99.90
2019-03-24T21:37:18.294Z,99.90
2019-03-24T21:39:47.601Z,99.90
2019-03-24T21:42:18.901Z,99.90
2019-03-24T21:44:49.849Z,99.90
2019-03-24T21:47:19.170Z,99.90
2019-03-24T21:49:48.465Z,99.90
2019-03-24T21:52:17.776Z,99.90
2019-03-24T21:54:47.083Z,99.90
2019-03-24T21:57:16.930Z,99.90
2019-03-24T21:59:46.235Z,99.90
2019-03-24T22:02:15.654Z,99.90
2019-03-24T22:04:45.023Z,99.90
2019-03-24T22:07:14.354Z,99.90
2019-03-24T22:09:43.664Z,99.90
2019-03-24T22:12:12.970Z,99.90
2019-03-24T22:14:42.346Z,99.90
2019-03-24T22:17:11.662Z,99.90
2019-03-24T22:19:40.963Z,99.90
2019-03-24T22:22:10.275Z,99.90
2019-03-24T22:24:39.599Z,99.90
2019-03-24T22:27:08.899Z,99.90
2019-03-24T22:29:38.199Z,99.90
2019-03-24T22:32:07.512Z,99.90
2019-03-24T22:34:36.828Z,99.90
2019-03-24T22:37:15.429Z,99.90
2019-03-24T22:39:37.143Z,99.90
2019-03-24T22:42:06.463Z,99.90
2019-03-24T22:44:35.760Z,99.90
2019-03-24T22:47:05.075Z,99.90
2019-03-24T22:49:34.384Z,99.90
2019-03-24T22:52:07.387Z,99.90
2019-03-24T22:54:34.788Z,99.90
2019-03-24T22:57:04.112Z,99.90
2019-03-24T22:59:33.434Z,99.90
2019-03-24T23:02:02.743Z,99.90
2019-03-24T23:04:32.034Z,99.90
2019-03-24T23:07:01.368Z,99.90
2019-03-24T23:09:30.665Z,99.90
2019-03-24T23:11:59.975Z,99.90
2019-03-24T23:14:29.291Z,99.90
2019-03-24T23:16:58.605Z,99.90
2019-03-24T23:19:27.920Z,99.90
2019-03-24T23:21:57.223Z,99.90
2019-03-24T23:24:26.538Z,99.90
2019-03-24T23:26:55.841Z,99.90
2019-03-24T23:29:25.176Z,99.90
2019-03-24T23:31:55.524Z,99.90
2019-03-24T23:34:24.837Z,99.90
2019-03-24T23:36:54.149Z,99.90
2019-03-24T23:39:23.467Z,99.90
2019-03-24T23:41:52.775Z,99.90
2019-03-24T23:44:22.091Z,99.90
2019-03-24T23:46:52.380Z,99.90
2019-03-24T23:49:21.701Z,99.90
2019-03-24T23:51:51.005Z,99.90
2019-03-24T23:54:26.935Z,99.90
2019-03-24T23:56:51.332Z,99.90
2019-03-24T23:59:20.652Z,99.90
